Ghotki Weather



Ghotki's Current Weather

Temprature 42o haze

haze

Rain: 0 %

Min Temprature42o
Max Temprature42o
Humidity48
Wind Speed5.87 m/h
Sun Rise05:51:54
Sun Set19:03:25
Current Time: 13-Aug-2020 18:59:32
Lat/Lon: 28.01, 69.32




Ghotki's Geo Location



Ghotki's Weather Forecast

Time Overall Temp Min Temp Max Temp Humidity Wind Speed Rain
13-Aug-2020 (Thu)
20:00:00 clear sky 41.200 40.370 41.200 39 6.23 m/h 0 %
23:00:00 scattered clouds 37.350 36.070 37.350 49 7.43 m/h 0 %
14-Aug-2020 (Fri)
02:00:00 clear sky 33.830 33.270 33.830 58 6.11 m/h 0 %
05:00:00 clear sky 31.290 31.200 31.290 66 5.71 m/h 0 %
08:00:00 scattered clouds 32.570 32.570 32.570 61 4.74 m/h 0 %
11:00:00 scattered clouds 38.200 38.200 38.200 40 4.45 m/h 0 %
14:00:00 broken clouds 41.740 41.740 41.740 30 4.89 m/h 0 %
17:00:00 scattered clouds 41.700 41.700 41.700 29 4.54 m/h 0 %
20:00:00 few clouds 38.680 38.680 38.680 35 5.21 m/h 0 %
23:00:00 few clouds 37.040 37.040 37.040 40 4.65 m/h 0 %
15-Aug-2020 (Sat)
02:00:00 overcast clouds 33.710 33.710 33.710 57 6.92 m/h 0 %
05:00:00 overcast clouds 32.280 32.280 32.280 60 4.86 m/h 0 %
08:00:00 broken clouds 34.090 34.090 34.090 52 4.5 m/h 0 %
11:00:00 scattered clouds 39.730 39.730 39.730 34 5.33 m/h 0 %
14:00:00 clear sky 43.160 43.160 43.160 26 5.66 m/h 0 %
17:00:00 clear sky 43.140 43.140 43.140 26 5.28 m/h 0 %
20:00:00 clear sky 39.480 39.480 39.480 33 5.77 m/h 0 %
23:00:00 clear sky 35.840 35.840 35.840 50 8.5 m/h 0 %
16-Aug-2020 (Sun)
02:00:00 scattered clouds 32.850 32.850 32.850 57 8.19 m/h 0 %
05:00:00 scattered clouds 31.500 31.500 31.500 62 5.53 m/h 0 %
08:00:00 broken clouds 32.770 32.770 32.770 59 4.99 m/h 0 %
11:00:00 broken clouds 39.530 39.530 39.530 36 5.53 m/h 0 %
14:00:00 overcast clouds 43.070 43.070 43.070 27 5.05 m/h 0 %
17:00:00 overcast clouds 42.790 42.790 42.790 27 5.51 m/h 0 %
20:00:00 overcast clouds 38.900 38.900 38.900 38 7.28 m/h 0 %
23:00:00 overcast clouds 34.930 34.930 34.930 51 8.88 m/h 0 %
17-Aug-2020 (Mon)
02:00:00 broken clouds 32.330 32.330 32.330 59 6.87 m/h 0 %
05:00:00 broken clouds 31.120 31.120 31.120 64 6 m/h 0 %
08:00:00 overcast clouds 32.490 32.490 32.490 59 6.4 m/h 0 %
11:00:00 overcast clouds 38.720 38.720 38.720 38 6.35 m/h 0 %
14:00:00 scattered clouds 41.310 41.310 41.310 32 7.72 m/h 0 %
17:00:00 scattered clouds 40.000 40.000 40.000 33 6.92 m/h 0 %
20:00:00 broken clouds 36.180 36.180 36.180 43 5.71 m/h 0 %
23:00:00 overcast clouds 34.380 34.380 34.380 49 5.51 m/h 0 %
18-Aug-2020 (Tue)
02:00:00 broken clouds 32.870 32.870 32.870 57 4.13 m/h 0 %
05:00:00 broken clouds 31.470 31.470 31.470 62 3.37 m/h 0 %
08:00:00 overcast clouds 32.020 32.020 32.020 61 3.95 m/h 0 %
11:00:00 overcast clouds 37.270 37.270 37.270 43 4.13 m/h 0 %
14:00:00 broken clouds 39.810 39.810 39.810 36 5.6 m/h 0 %
17:00:00 overcast clouds 39.330 39.330 39.330 36 4.67 m/h 0 %

Famous Cities (60)